createdAt,value
2023-09-23T00:00:02.041Z,997.9070861484761
2023-09-23T00:15:01.704Z,998.1259614261797
2023-09-23T00:30:02.382Z,998.233226237642
2023-09-23T00:45:02.098Z,998.3364409577293
2023-09-23T01:00:01.772Z,998.5109841096521
2023-09-23T01:15:02.440Z,998.5081821386941
2023-09-23T01:30:02.103Z,998.6254414756312
2023-09-23T01:45:01.767Z,998.8114195086664
2023-09-23T02:00:02.451Z,998.8714216544182
2023-09-23T02:15:02.123Z,999.1417998961942
2023-09-23T02:30:01.789Z,999.4624125047783
2023-09-23T02:45:02.542Z,999.6794530183371
2023-09-23T03:00:02.182Z,999.9234092325053
2023-09-23T03:15:01.868Z,1000.1588947967932
2023-09-23T03:30:04.759Z,1000.3318379615973
2023-09-23T03:45:01.703Z,1000.4612163269599
2023-09-23T04:00:02.351Z,1000.5942445388489
2023-09-23T04:15:01.992Z,1000.7648127496202
2023-09-23T04:30:02.228Z,1000.9183593495219
2023-09-23T04:45:01.931Z,1001.0727295431931
2023-09-23T05:00:01.647Z,1001.2921134827436
2023-09-23T05:15:02.297Z,1001.456968812244
2023-09-23T05:30:01.962Z,1001.7482931106262
2023-09-23T05:45:01.644Z,1001.9814091466802
2023-09-23T06:00:02.333Z,1002.2507454956191
2023-09-23T06:15:02.006Z,1002.4883450405391
2023-09-23T06:30:01.704Z,1002.7272380747387
2023-09-23T06:45:02.328Z,1002.9779275824295
2023-09-23T07:00:01.938Z,1003.2439151669068
2023-09-23T07:15:01.660Z,1003.4146568246952
2023-09-23T07:30:02.366Z,1003.6190402893318
2023-09-23T07:45:01.966Z,1003.7566919861654
2023-09-23T08:00:01.644Z,1003.8964608469634
2023-09-23T08:15:02.281Z,1004.204191202145
2023-09-23T08:30:01.936Z,1004.5038906116336
2023-09-23T08:45:01.702Z,1004.4790323749859
2023-09-23T09:00:03.267Z,1004.7318764193716
2023-09-23T09:15:02.055Z,1004.9884563471051
2023-09-23T09:45:02.385Z,1005.3266725997347
2023-09-23T10:00:02.142Z,1005.3110294230266
2023-09-23T10:15:01.842Z,1005.4622636663835
2023-09-23T10:30:02.582Z,1005.4597285790235
2023-09-23T10:45:02.373Z,1005.7835214114298
2023-09-23T11:00:02.035Z,1005.9450644270007
2023-09-23T11:15:01.711Z,1006.0643076416643
2023-09-23T11:30:02.433Z,1006.2058324234166
2023-09-23T11:45:02.128Z,1006.3455541892826
2023-09-23T12:00:01.824Z,1006.2796050710083
2023-09-23T12:15:02.489Z,1006.3615228486141
2023-09-23T12:30:02.443Z,1006.5105556528184
2023-09-23T12:45:05.606Z,1006.7289009746497
2023-09-23T13:00:02.135Z,1006.8187517810464
2023-09-23T13:15:01.752Z,1006.8878272558514
2023-09-23T13:30:02.433Z,1007.0330809281411
2023-09-23T13:45:02.130Z,1007.1932562861476
2023-09-23T14:00:01.811Z,1007.212212152471
2023-09-23T14:15:02.448Z,1007.3187250552797
2023-09-23T14:30:02.143Z,1007.4915793538141
2023-09-23T14:45:01.781Z,1007.6166249768286
2023-09-23T15:00:02.511Z,1007.8366104896119
2023-09-23T15:15:02.222Z,1008.0363347828195
2023-09-23T15:30:01.950Z,1008.182742438527
2023-09-23T15:45:01.602Z,1008.4829010015643
2023-09-23T16:00:02.272Z,1008.6703239283287
2023-09-23T16:15:01.893Z,1008.9291038579108
2023-09-23T16:30:01.620Z,1009.0446693951052
2023-09-23T16:45:02.322Z,1009.1983622419897
2023-09-23T17:00:02.012Z,1009.4138380490845
2023-09-23T17:15:01.797Z,1009.5685235510226
2023-09-23T17:30:02.535Z,1009.7177987616727
2023-09-23T17:45:02.229Z,1010.1639527636672
2023-09-23T18:00:01.897Z,1010.3444735859455
2023-09-23T18:15:02.553Z,1010.6680343402854
2023-09-23T18:30:02.247Z,1010.824259308794
2023-09-23T18:45:01.958Z,1010.9500068818749
2023-09-23T19:00:01.624Z,1011.2953729572515
2023-09-23T19:15:02.268Z,1011.4334708229228
2023-09-23T19:30:01.946Z,1011.6825168235151
2023-09-23T19:45:01.757Z,1011.8995444351676
2023-09-23T20:00:02.509Z,1012.0830228536323
2023-09-23T20:15:02.173Z,1012.2785389384995
2023-09-23T20:45:02.482Z,1012.6849068505602
2023-09-23T21:00:02.143Z,1012.8818786138108
2023-09-23T21:15:01.850Z,1013.0815199783513
2023-09-23T21:30:02.530Z,1013.2281834531149
2023-09-23T21:45:02.142Z,1013.4248203543906
2023-09-23T22:00:01.878Z,1013.4775299388084
2023-09-23T22:15:01.594Z,1013.5350731366984
2023-09-23T22:30:02.273Z,1013.6156778145828
2023-09-23T22:45:01.915Z,1013.7396854972424
2023-09-23T23:00:01.676Z,1013.7657290745723
2023-09-23T23:15:02.326Z,1013.8983655032965
2023-09-23T23:30:02.040Z,1014.0504993777821
2023-09-23T23:45:01.721Z,1014.2247282775788
